메인 페이지
METAR-TAF:

METAR-TAF

공항 :

우샤크, 터키

위도: 38-40N, 경도: 029-25E, 고도: 919m

현재 날씨관측

예보는 22분 전, 07:50시(UTC)에 발표되었습니다.
동북동19kt
온도 16°C
습도 34%
기압 1019 hPa
시정 10km 이상
1500m 미만 상공 구름 및 적란운 없음

METAR: LTBO 100750Z 07019KT CAVOK 16/M00 Q1019

시각: 11:12 (08:12 UTC)

예보

예보는 3 시간 32분 전, 04:40시(UTC)에 발표되었습니다.
예보 대상 시간: 10일 06시부터 10일 15시까지 (UTC)
18kt, 순간 최대 풍속 28kt
시정 10km 이상
1500m 미만 상공 구름 및 적란운 없음

TAF: LTBO 100440Z 1006/1015 08018G28KT CAVOK

4,000개 이상의 공항 관측 자료 및 예보 (METAR 및 TAF 보고).

지도상에서 검색 가능한 기상관측소가 노란 점과 빨간 점으로 표시되어 있습니다.

기상관측소 명을 보려면 표시 위로 마우스를 이동하세요.

날씨 관측과 예보를 보려면 클릭하세요.

지도 변경 : 확대하려면 엑스 표시가 있는 녹색 버튼, 축소하려면 빼기 표시가 있는 녹색 버튼, 다음 페이지의 지도를 보려면 녹색 화살표를 클릭하세요.


METAR-TAF: